Time;durP1;ratioP1;P1;durP2;ratioP2;P2;SDS_P1;SDS_P2;PMS_P1;PMS_P2;Temp;Humidity;BMP_temperature;BMP_pressure;BME280_temperature;BME280_humidity;BME280_pressure;Samples;Min_cycle;Max_cycle;Signal;HPM_P1;HPM_P2
2022/11/11 00:01:41;;;;;;;17.02;8.75;;;;;;;;;;4995924;28;20108;-79
2022/11/11 00:04:07;;;;;;;14.90;8.98;;;;;;;;;;5012914;28;20041;-79
2022/11/11 00:06:33;;;;;;;18.85;8.70;;;;;;;;;;4995490;28;20084;-80
2022/11/11 00:08:59;;;;;;;18.00;8.55;;;;;;;;;;5013062;28;20033;-79
2022/11/11 00:11:25;;;;;;;24.95;8.93;;;;;;;;;;5013005;28;20025;-79
2022/11/11 00:13:51;;;;;;;15.18;8.85;;;;;;;;;;5012828;28;20026;-79
2022/11/11 00:16:18;;;;;;;23.35;9.25;;;;;;;;;;5013194;28;20053;-80
2022/11/11 00:26:46;;;;;;;18.17;10.60;;;;;;;;;;5012598;28;20031;-80
2022/11/11 00:29:12;;;;;;;28.38;10.98;;;;;;;;;;4995254;28;20022;-80
2022/11/11 00:32:21;;;;;;;26.08;11.55;;;;;;;;;;5012728;28;20026;-80
2022/11/11 00:34:24;;;;;;;22.77;10.63;;;;;;;;;;5012301;28;20085;-79
2022/11/11 00:36:50;;;;;;;22.10;11.57;;;;;;;;;;5012454;28;20129;-79
2022/11/11 00:39:17;;;;;;;24.45;12.10;;;;;;;;;;5012701;28;20026;-80
2022/11/11 00:41:43;;;;;;;30.45;12.93;;;;;;;;;;5012622;28;20089;-79
2022/11/11 00:44:09;;;;;;;30.73;12.82;;;;;;;;;;5024771;28;20368;-80
2022/11/11 00:52:04;;;;;;;26.33;14.32;;;;;;;;;;5016311;28;20137;-79
2022/11/11 00:54:30;;;;;;;32.38;14.95;;;;;;;;;;5014631;28;20120;-79
2022/11/11 00:56:56;;;;;;;31.23;16.85;;;;;;;;;;5016009;28;20049;-79
2022/11/11 00:59:22;;;;;;;31.75;15.90;;;;;;;;;;5016326;28;20064;-80
2022/11/11 01:01:48;;;;;;;34.20;17.63;;;;;;;;;;5015830;28;20034;-80
2022/11/11 01:04:14;;;;;;;28.27;17.15;;;;;;;;;;5016073;28;20026;-80
2022/11/11 01:06:40;;;;;;;30.60;17.08;;;;;;;;;;5015746;28;20058;-79
2022/11/11 01:09:06;;;;;;;37.80;18.58;;;;;;;;;;5015710;28;20033;-80
2022/11/11 01:11:32;;;;;;;33.72;17.65;;;;;;;;;;5015412;28;20030;-79
2022/11/11 01:13:59;;;;;;;33.30;18.75;;;;;;;;;;5015618;28;20030;-78
2022/11/11 01:16:26;;;;;;;34.88;18.40;;;;;;;;;;5015736;28;20026;-78
2022/11/11 01:18:52;;;;;;;33.80;18.23;;;;;;;;;;5017323;28;20108;-78
2022/11/11 01:21:20;;;;;;;31.45;16.92;;;;;;;;;;5035177;28;20026;-78
2022/11/11 01:23:47;;;;;;;33.63;18.50;;;;;;;;;;5017043;28;20132;-78
2022/11/11 01:26:16;;;;;;;35.15;18.63;;;;;;;;;;5017292;28;20044;-78
2022/11/11 01:28:43;;;;;;;34.42;18.58;;;;;;;;;;5016746;28;20018;-78
2022/11/11 01:31:14;;;;;;;37.70;20.00;;;;;;;;;;5015489;28;20029;-78
2022/11/11 01:33:40;;;;;;;35.93;18.87;;;;;;;;;;5015257;28;20018;-78
2022/11/11 01:36:08;;;;;;;33.97;19.27;;;;;;;;;;5014982;28;20042;-76
2022/11/11 01:38:35;;;;;;;37.75;19.63;;;;;;;;;;5014695;28;20049;-76
2022/11/11 01:41:31;;;;;;;32.03;18.90;;;;;;;;;;5018817;28;20033;-76
2022/11/11 01:43:47;;;;;;;35.67;19.48;;;;;;;;;;5033606;28;20033;-76
2022/11/11 01:46:20;;;;;;;37.03;21.02;;;;;;;;;;5033746;28;20079;-76
2022/11/11 01:51:36;;;;;;;35.03;20.38;;;;;;;;;;5033714;28;20467;-76
2022/11/11 01:54:04;;;;;;;36.08;19.50;;;;;;;;;;5033984;28;20109;-79
2022/11/11 01:56:31;;;;;;;34.95;19.33;;;;;;;;;;5033964;28;20021;-79
2022/11/11 01:59:00;;;;;;;39.58;19.42;;;;;;;;;;5021505;28;20084;-79
2022/11/11 02:01:26;;;;;;;36.38;19.13;;;;;;;;;;5012724;28;20535;-79
2022/11/11 02:06:39;;;;;;;40.65;19.98;;;;;;;;;;5012465;28;20044;-79
2022/11/11 02:09:05;;;;;;;36.25;20.25;;;;;;;;;;5012714;28;20030;-80
2022/11/11 02:14:36;;;;;;;38.38;19.65;;;;;;;;;;4981047;28;20384;-79
2022/11/11 02:17:07;;;;;;;36.30;20.13;;;;;;;;;;5013820;28;20018;-79
2022/11/11 02:19:42;;;;;;;36.73;19.60;;;;;;;;;;5013727;28;20372;-79
2022/11/11 02:22:11;;;;;;;40.60;19.05;;;;;;;;;;4996443;28;20164;-79
2022/11/11 02:24:37;;;;;;;34.75;20.15;;;;;;;;;;5013711;28;20034;-79
2022/11/11 02:27:05;;;;;;;32.92;18.55;;;;;;;;;;5016245;28;20053;-79
2022/11/11 02:29:33;;;;;;;37.28;20.70;;;;;;;;;;5008028;28;20458;-79
2022/11/11 02:31:59;;;;;;;34.28;19.38;;;;;;;;;;5013369;28;20109;-79
2022/11/11 02:34:29;;;;;;;35.95;19.70;;;;;;;;;;5013593;28;20424;-80
2022/11/11 02:36:55;;;;;;;43.38;20.00;;;;;;;;;;5013291;28;20041;-79
2022/11/11 02:39:21;;;;;;;37.85;19.80;;;;;;;;;;5013396;28;20079;-79
2022/11/11 02:41:57;;;;;;;35.88;19.67;;;;;;;;;;5029258;28;20037;-79
2022/11/11 02:44:24;;;;;;;35.90;19.05;;;;;;;;;;5033273;28;20496;-79
2022/11/11 02:46:51;;;;;;;34.88;19.20;;;;;;;;;;5015655;28;20394;-79
2022/11/11 02:49:17;;;;;;;36.45;19.35;;;;;;;;;;5033144;28;20392;-79
2022/11/11 02:51:43;;;;;;;36.40;19.42;;;;;;;;;;5015459;28;20029;-79
2022/11/11 02:54:09;;;;;;;35.22;18.00;;;;;;;;;;5033205;28;20022;-78
2022/11/11 02:59:20;;;;;;;35.55;18.63;;;;;;;;;;5033116;28;20036;-79
2022/11/11 03:01:47;;;;;;;33.85;18.63;;;;;;;;;;5032936;28;20112;-79
2022/11/11 03:04:13;;;;;;;37.03;17.50;;;;;;;;;;5032863;28;20060;-79
2022/11/11 03:06:39;;;;;;;34.03;18.25;;;;;;;;;;5032590;28;20044;-79
2022/11/11 03:09:05;;;;;;;36.65;18.85;;;;;;;;;;5032608;28;20029;-79
2022/11/11 03:11:32;;;;;;;34.58;18.30;;;;;;;;;;5032553;28;20387;-79
2022/11/11 03:13:59;;;;;;;35.00;17.77;;;;;;;;;;5032855;28;20022;-79
2022/11/11 03:19:10;;;;;;;35.28;18.20;;;;;;;;;;5033069;28;20051;-79
2022/11/11 03:21:36;;;;;;;35.28;17.70;;;;;;;;;;5032650;28;20025;-79
2022/11/11 03:24:02;;;;;;;36.25;18.75;;;;;;;;;;5032815;28;20456;-79
2022/11/11 03:26:28;;;;;;;37.05;17.73;;;;;;;;;;5032718;28;20044;-79
2022/11/11 03:28:54;;;;;;;37.55;18.88;;;;;;;;;;5030635;28;20392;-79
2022/11/11 03:31:20;;;;;;;36.10;18.08;;;;;;;;;;5013000;28;20388;-79
2022/11/11 03:33:47;;;;;;;37.50;17.63;;;;;;;;;;5013257;28;20119;-79
2022/11/11 03:36:13;;;;;;;41.45;18.25;;;;;;;;;;5032019;28;20049;-80
2022/11/11 03:38:39;;;;;;;36.70;18.13;;;;;;;;;;5032198;28;20603;-79
2022/11/11 03:41:05;;;;;;;33.95;18.13;;;;;;;;;;5018273;28;20500;-79
2022/11/11 03:43:32;;;;;;;35.58;17.92;;;;;;;;;;5012359;28;20033;-79
2022/11/11 03:45:59;;;;;;;29.85;18.08;;;;;;;;;;5016967;28;20487;-79
2022/11/11 03:48:26;;;;;;;31.17;17.70;;;;;;;;;;5032208;28;20092;-79
2022/11/11 03:50:52;;;;;;;40.80;19.60;;;;;;;;;;5032011;28;20534;-79
2022/11/11 03:53:22;;;;;;;34.95;18.50;;;;;;;;;;5032162;28;20044;-79
2022/11/11 03:55:48;;;;;;;37.13;18.83;;;;;;;;;;5032119;28;20379;-79
2022/11/11 03:58:15;;;;;;;30.45;17.75;;;;;;;;;;5026731;28;20029;-79
2022/11/11 04:00:43;;;;;;;32.88;17.88;;;;;;;;;;4994935;28;20431;-79
2022/11/11 04:11:30;;;;;;;34.75;17.75;;;;;;;;;;4997640;28;20077;-79
2022/11/11 04:16:42;;;;;;;32.67;18.10;;;;;;;;;;5012136;28;20095;-79
2022/11/11 04:21:53;;;;;;;27.33;15.98;;;;;;;;;;5016558;28;20073;-79
2022/11/11 04:27:14;;;;;;;37.15;17.10;;;;;;;;;;5016045;28;20482;-79
2022/11/11 04:29:41;;;;;;;37.75;17.10;;;;;;;;;;5024208;28;20017;-79
2022/11/11 04:34:57;;;;;;;31.27;16.77;;;;;;;;;;5035247;28;20036;-79
2022/11/11 04:37:24;;;;;;;29.15;15.23;;;;;;;;;;5034561;28;20404;-80
2022/11/11 04:42:36;;;;;;;29.38;13.80;;;;;;;;;;5015940;28;20029;-79
2022/11/11 04:48:00;;;;;;;30.20;14.75;;;;;;;;;;5015740;28;20392;-79
2022/11/11 04:50:32;;;;;;;25.98;14.43;;;;;;;;;;5015689;28;20026;-79
2022/11/11 04:52:58;;;;;;;25.27;14.27;;;;;;;;;;5015499;28;20101;-80
2022/11/11 04:58:09;;;;;;;28.25;14.45;;;;;;;;;;5015541;28;20041;-79
2022/11/11 05:00:35;;;;;;;25.00;13.40;;;;;;;;;;5015445;28;20038;-79
2022/11/11 05:03:22;;;;;;;24.35;14.00;;;;;;;;;;5015384;28;20043;-80
2022/11/11 05:11:18;;;;;;;27.50;14.10;;;;;;;;;;5015066;28;20107;-79
2022/11/11 05:22:05;;;;;;;28.85;14.15;;;;;;;;;;5015317;28;20085;-79
2022/11/11 05:27:15;;;;;;;31.15;14.73;;;;;;;;;;5015243;28;20372;-79
2022/11/11 05:29:41;;;;;;;31.48;13.70;;;;;;;;;;5014469;28;20088;-79
2022/11/11 05:32:08;;;;;;;29.77;13.68;;;;;;;;;;4997021;28;20033;-79
2022/11/11 05:34:34;;;;;;;28.15;14.05;;;;;;;;;;5014703;28;20034;-79
2022/11/11 05:37:00;;;;;;;25.20;13.48;;;;;;;;;;5014419;28;20053;-79
2022/11/11 05:39:26;;;;;;;28.92;14.63;;;;;;;;;;5015111;28;20029;-79
2022/11/11 05:41:52;;;;;;;28.55;14.30;;;;;;;;;;5015792;28;20030;-79
2022/11/11 05:44:18;;;;;;;29.15;14.02;;;;;;;;;;5034179;28;20025;-79
2022/11/11 05:46:44;;;;;;;30.15;14.93;;;;;;;;;;5034319;28;20022;-80
2022/11/11 05:49:16;;;;;;;34.13;14.65;;;;;;;;;;5033985;28;20036;-80
2022/11/11 05:51:43;;;;;;;32.13;14.15;;;;;;;;;;5034273;28;20108;-79
2022/11/11 05:54:09;;;;;;;25.08;13.82;;;;;;;;;;5033860;28;20041;-79
2022/11/11 05:56:35;;;;;;;32.40;14.93;;;;;;;;;;5034441;28;20034;-79
2022/11/11 05:59:01;;;;;;;28.40;14.45;;;;;;;;;;5033856;28;20029;-79
2022/11/11 06:01:27;;;;;;;32.95;15.07;;;;;;;;;;5033855;28;20041;-80
2022/11/11 06:03:53;;;;;;;32.25;13.65;;;;;;;;;;5033920;28;20037;-79
2022/11/11 06:06:19;;;;;;;28.17;14.63;;;;;;;;;;5033727;28;20039;-79
2022/11/11 06:08:45;;;;;;;29.30;14.75;;;;;;;;;;5033836;28;20081;-79
2022/11/11 06:11:11;;;;;;;28.77;13.18;;;;;;;;;;5033866;28;20036;-80
2022/11/11 06:13:37;;;;;;;31.27;14.65;;;;;;;;;;5033813;28;20487;-79
2022/11/11 06:16:04;;;;;;;26.65;14.00;;;;;;;;;;5033640;28;20025;-79
2022/11/11 06:18:30;;;;;;;30.08;14.52;;;;;;;;;;5033460;28;20022;-79
2022/11/11 06:20:56;;;;;;;30.02;14.40;;;;;;;;;;5033665;28;20021;-79
2022/11/11 06:23:23;;;;;;;29.23;14.25;;;;;;;;;;5033716;28;20040;-79
2022/11/11 06:28:34;;;;;;;24.25;12.63;;;;;;;;;;5033892;28;20123;-79
2022/11/11 06:31:00;;;;;;;32.30;13.23;;;;;;;;;;5012361;28;20036;-79
2022/11/11 06:33:26;;;;;;;26.85;13.70;;;;;;;;;;5013450;28;20037;-79
2022/11/11 06:35:52;;;;;;;29.83;13.35;;;;;;;;;;5028381;28;20061;-79
2022/11/11 06:38:18;;;;;;;27.20;12.15;;;;;;;;;;5032538;28;20125;-79
2022/11/11 06:40:45;;;;;;;28.10;13.45;;;;;;;;;;5014032;28;20030;-79
2022/11/11 06:43:11;;;;;;;26.58;13.45;;;;;;;;;;5032259;28;20034;-79
2022/11/11 06:45:37;;;;;;;23.30;12.88;;;;;;;;;;5033107;28;20085;-79
2022/11/11 06:48:04;;;;;;;29.95;14.85;;;;;;;;;;5015491;28;20109;-79
2022/11/11 06:50:31;;;;;;;25.13;13.68;;;;;;;;;;5032933;28;20080;-79
2022/11/11 06:53:04;;;;;;;33.47;14.00;;;;;;;;;;5033172;28;20026;-79
2022/11/11 06:55:30;;;;;;;;;;;;;;;;;;5033472;28;20064;-79
2022/11/11 06:58:03;;;;;;;21.83;13.32;;;;;;;;;;5032880;28;20300;-79
2022/11/11 07:00:30;;;;;;;32.20;13.68;;;;;;;;;;5033114;28;20040;-79
2022/11/11 07:02:56;;;;;;;26.77;13.65;;;;;;;;;;5032908;28;20116;-79
2022/11/11 07:05:22;;;;;;;30.00;15.18;;;;;;;;;;5032768;28;20479;-79
2022/11/11 07:07:48;;;;;;;27.95;13.70;;;;;;;;;;5032643;28;20056;-79
2022/11/11 07:10:15;;;;;;;24.10;13.55;;;;;;;;;;5021256;28;20452;-79
2022/11/11 07:12:41;;;;;;;33.00;14.05;;;;;;;;;;5003356;28;20021;-79
2022/11/11 07:15:08;;;;;;;29.25;14.27;;;;;;;;;;4995124;28;20037;-79
2022/11/11 07:17:34;;;;;;;30.13;13.98;;;;;;;;;;5016524;28;20021;-79
2022/11/11 07:20:00;;;;;;;25.95;14.55;;;;;;;;;;5032480;28;20037;-80
2022/11/11 07:22:26;;;;;;;38.80;14.20;;;;;;;;;;5015392;28;20111;-79
2022/11/11 07:24:52;;;;;;;28.80;14.27;;;;;;;;;;5032337;28;20022;-79
2022/11/11 07:27:18;;;;;;;33.60;15.27;;;;;;;;;;5032776;28;20022;-79
2022/11/11 07:29:44;;;;;;;26.33;13.82;;;;;;;;;;5032396;28;20025;-79
2022/11/11 07:32:10;;;;;;;30.70;14.30;;;;;;;;;;5016001;28;20112;-79
2022/11/11 07:34:36;;;;;;;29.92;13.55;;;;;;;;;;5028946;28;20561;-80
2022/11/11 07:37:02;;;;;;;27.30;13.80;;;;;;;;;;5006414;28;20045;-79
2022/11/11 07:39:28;;;;;;;31.30;14.25;;;;;;;;;;5031941;28;20080;-79
2022/11/11 07:41:54;;;;;;;29.90;14.52;;;;;;;;;;5032253;28;20040;-79
2022/11/11 07:44:20;;;;;;;28.23;13.50;;;;;;;;;;5032206;28;20028;-79
2022/11/11 07:46:46;;;;;;;27.23;13.50;;;;;;;;;;5032362;28;20523;-80
2022/11/11 07:49:12;;;;;;;30.67;14.27;;;;;;;;;;5032275;28;20479;-80
2022/11/11 07:51:38;;;;;;;26.20;13.10;;;;;;;;;;5010826;28;20041;-80
2022/11/11 07:54:04;;;;;;;26.00;13.68;;;;;;;;;;5021960;28;20030;-79
2022/11/11 07:56:30;;;;;;;30.35;14.45;;;;;;;;;;5016624;28;20108;-80
2022/11/11 07:58:56;;;;;;;27.65;14.02;;;;;;;;;;5010947;28;20064;-80
2022/11/11 08:01:22;;;;;;;29.83;13.88;;;;;;;;;;5030680;28;20042;-80
2022/11/11 08:03:48;;;;;;;27.73;13.73;;;;;;;;;;5030376;28;20029;-79
2022/11/11 08:06:18;;;;;;;24.38;12.63;;;;;;;;;;5023195;28;20030;-79
2022/11/11 08:08:44;;;;;;;26.48;13.00;;;;;;;;;;5026495;28;20107;-80
2022/11/11 08:11:11;;;;;;;26.75;13.00;;;;;;;;;;5035977;28;20099;-79
2022/11/11 08:13:40;;;;;;;31.80;14.10;;;;;;;;;;5036073;28;20052;-79
2022/11/11 08:16:13;;;;;;;32.92;14.52;;;;;;;;;;5036085;28;20026;-79
2022/11/11 08:18:39;;;;;;;27.00;12.90;;;;;;;;;;5035974;28;20415;-79
2022/11/11 08:21:06;;;;;;;26.17;14.00;;;;;;;;;;5035910;28;20033;-79
2022/11/11 08:23:32;;;;;;;23.38;13.23;;;;;;;;;;5035796;28;20037;-80
2022/11/11 08:25:59;;;;;;;22.85;12.57;;;;;;;;;;5032887;28;20032;-80
2022/11/11 08:28:25;;;;;;;25.67;14.00;;;;;;;;;;5035891;28;20021;-79
2022/11/11 08:30:51;;;;;;;25.98;13.35;;;;;;;;;;5017954;28;20052;-79
2022/11/11 08:33:17;;;;;;;29.55;13.95;;;;;;;;;;5018093;28;20114;-80
2022/11/11 08:35:43;;;;;;;26.65;13.48;;;;;;;;;;5017569;28;20028;-79
2022/11/11 08:38:09;;;;;;;27.30;13.73;;;;;;;;;;5011035;28;20046;-80
2022/11/11 08:40:35;;;;;;;32.45;14.07;;;;;;;;;;4995828;28;20058;-80
2022/11/11 08:43:01;;;;;;;25.95;13.45;;;;;;;;;;4987953;28;20106;-79
2022/11/11 08:45:28;;;;;;;25.58;13.68;;;;;;;;;;4975325;28;20031;-79
2022/11/11 08:47:54;;;;;;;27.92;13.50;;;;;;;;;;4984587;28;20079;-80
2022/11/11 08:50:20;;;;;;;29.17;13.27;;;;;;;;;;4990270;28;20093;-79
2022/11/11 08:52:47;;;;;;;27.63;14.10;;;;;;;;;;5014403;28;20037;-80
2022/11/11 08:55:13;;;;;;;25.40;13.35;;;;;;;;;;5015985;28;20396;-80
2022/11/11 08:57:39;;;;;;;24.15;13.20;;;;;;;;;;5007464;28;20081;-81
2022/11/11 09:00:05;;;;;;;33.22;12.75;;;;;;;;;;4995942;28;20030;-80
2022/11/11 09:02:31;;;;;;;28.25;12.75;;;;;;;;;;4995507;28;20023;-81
2022/11/11 09:04:57;;;;;;;22.40;12.50;;;;;;;;;;4994744;28;20045;-80
2022/11/11 09:07:24;;;;;;;23.42;12.82;;;;;;;;;;4995507;28;20041;-80
2022/11/11 09:09:50;;;;;;;24.02;11.70;;;;;;;;;;4995267;28;20109;-81
2022/11/11 09:12:16;;;;;;;24.30;11.63;;;;;;;;;;4995400;28;20057;-81
2022/11/11 09:14:42;;;;;;;24.13;12.60;;;;;;;;;;4994293;28;20027;-81
2022/11/11 09:17:08;;;;;;;20.45;12.20;;;;;;;;;;4995332;28;20022;-81
2022/11/11 09:19:34;;;;;;;20.88;11.93;;;;;;;;;;4993944;28;20022;-81
2022/11/11 09:22:00;;;;;;;20.65;11.50;;;;;;;;;;5008275;28;20534;-77
2022/11/11 09:24:26;;;;;;;25.38;11.90;;;;;;;;;;5014712;28;20498;-78
2022/11/11 09:26:52;;;;;;;22.52;11.25;;;;;;;;;;5014624;28;20480;-81
2022/11/11 09:29:18;;;;;;;18.63;11.50;;;;;;;;;;5004035;28;20050;-80
2022/11/11 09:31:45;;;;;;;18.55;11.50;;;;;;;;;;4974197;28;20166;-80
2022/11/11 09:34:11;;;;;;;16.17;10.05;;;;;;;;;;4974566;28;20034;-81
2022/11/11 09:36:37;;;;;;;17.75;10.50;;;;;;;;;;5003679;28;20053;-80
2022/11/11 09:39:06;;;;;;;18.58;10.80;;;;;;;;;;5016497;28;20049;-79
2022/11/11 09:42:05;;;;;;;21.98;11.10;;;;;;;;;;5015874;28;20088;-79
2022/11/11 09:44:41;;;;;;;19.58;10.85;;;;;;;;;;4983618;28;20124;-80
2022/11/11 09:47:38;;;;;;;22.05;10.52;;;;;;;;;;5012080;28;20032;-79
2022/11/11 09:50:09;;;;;;;20.95;11.13;;;;;;;;;;5034749;28;20057;-79
2022/11/11 09:52:57;;;;;;;18.30;10.38;;;;;;;;;;5032527;28;20017;-80
2022/11/11 09:55:44;;;;;;;19.48;10.60;;;;;;;;;;4996625;28;20038;-79
2022/11/11 09:58:37;;;;;;;20.38;10.63;;;;;;;;;;5015968;28;20048;-79
2022/11/11 10:01:09;;;;;;;17.60;10.48;;;;;;;;;;5015589;28;20121;-79
2022/11/11 10:03:42;;;;;;;16.77;9.63;;;;;;;;;;5016226;28;20044;-79
2022/11/11 10:06:21;;;;;;;17.60;9.77;;;;;;;;;;5032646;28;20115;-80
2022/11/11 10:09:01;;;;;;;16.73;10.23;;;;;;;;;;5034805;28;20171;-79
2022/11/11 10:11:50;;;;;;;14.50;9.73;;;;;;;;;;5052033;28;20055;-79
2022/11/11 10:14:17;;;;;;;16.65;10.13;;;;;;;;;;5035283;28;20033;-79
2022/11/11 10:16:58;;;;;;;18.00;9.73;;;;;;;;;;5051684;28;20499;-79
2022/11/11 10:19:27;;;;;;;19.05;10.20;;;;;;;;;;5035400;28;20796;-80
2022/11/11 10:22:14;;;;;;;16.33;10.10;;;;;;;;;;5051464;28;20140;-80
2022/11/11 10:24:41;;;;;;;19.67;9.57;;;;;;;;;;5051651;28;20040;-79
2022/11/11 10:27:20;;;;;;;20.15;9.93;;;;;;;;;;5034497;28;20041;-79
2022/11/11 10:29:46;;;;;;;15.05;9.23;;;;;;;;;;5014548;28;20095;-78
2022/11/11 10:32:23;;;;;;;13.30;9.13;;;;;;;;;;4995288;28;20033;-79
2022/11/11 10:34:59;;;;;;;21.58;10.63;;;;;;;;;;5008866;28;20017;-79
2022/11/11 10:37:34;;;;;;;21.50;10.13;;;;;;;;;;5050165;28;20084;-78
2022/11/11 10:40:01;;;;;;;20.58;10.55;;;;;;;;;;5036709;28;20121;-79
2022/11/11 10:42:27;;;;;;;16.30;10.05;;;;;;;;;;5014013;28;20134;-79
2022/11/11 10:45:00;;;;;;;20.05;10.68;;;;;;;;;;5014979;28;20426;-79
2022/11/11 10:47:42;;;;;;;15.70;9.10;;;;;;;;;;5014193;28;20022;-79
2022/11/11 10:50:21;;;;;;;16.40;10.15;;;;;;;;;;5014949;28;20026;-79
2022/11/11 10:52:50;;;;;;;17.63;9.50;;;;;;;;;;5014765;28;20057;-79
2022/11/11 10:55:27;;;;;;;17.17;9.70;;;;;;;;;;4995596;28;20041;-78
2022/11/11 10:58:11;;;;;;;16.65;9.65;;;;;;;;;;5004068;28;20028;-79
2022/11/11 11:00:39;;;;;;;20.77;10.00;;;;;;;;;;5029439;28;20025;-77
2022/11/11 11:03:23;;;;;;;21.05;10.25;;;;;;;;;;5014225;28;20029;-77
2022/11/11 11:06:16;;;;;;;17.52;9.57;;;;;;;;;;5014388;28;20042;-76
2022/11/11 11:08:56;;;;;;;14.68;8.68;;;;;;;;;;5016280;28;20105;-77
2022/11/11 11:11:37;;;;;;;17.13;9.40;;;;;;;;;;4999700;28;20044;-76
2022/11/11 11:14:20;;;;;;;15.70;9.00;;;;;;;;;;5007497;28;20026;-76
2022/11/11 11:16:54;;;;;;;15.52;8.73;;;;;;;;;;5011287;28;20023;-76
2022/11/11 11:19:24;;;;;;;14.48;9.30;;;;;;;;;;5005356;28;20029;-76
2022/11/11 11:22:01;;;;;;;15.95;9.32;;;;;;;;;;5008616;28;20124;-77
2022/11/11 11:24:28;;;;;;;16.98;9.68;;;;;;;;;;5002406;28;20071;-76
2022/11/11 11:26:59;;;;;;;16.27;9.25;;;;;;;;;;5003462;28;20457;-76
2022/11/11 11:29:31;;;;;;;15.93;9.05;;;;;;;;;;5004164;28;20409;-76
2022/11/11 11:32:13;;;;;;;16.25;9.23;;;;;;;;;;5003225;28;20061;-78
2022/11/11 11:34:43;;;;;;;17.27;9.27;;;;;;;;;;5016133;28;20025;-76
2022/11/11 11:37:15;;;;;;;19.95;9.95;;;;;;;;;;5033059;28;20179;-76
2022/11/11 11:39:43;;;;;;;;;;;;;;;;;;5026657;28;20542;-76
2022/11/11 11:42:26;;;;;;;12.68;7.95;;;;;;;;;;5005017;28;19944;-75
2022/11/11 11:44:53;;;;;;;16.52;9.23;;;;;;;;;;4994145;28;20034;-75
2022/11/11 11:48:00;;;;;;;14.65;8.88;;;;;;;;;;5012672;28;20105;-75
2022/11/11 11:50:26;;;;;;;13.50;9.15;;;;;;;;;;4935494;29;20065;-76
2022/11/11 11:53:10;;;;;;;18.63;9.25;;;;;;;;;;4951121;29;20038;-76
2022/11/11 11:55:44;;;;;;;15.40;9.35;;;;;;;;;;4989283;28;20061;-77
2022/11/11 11:58:24;;;;;;;19.10;8.98;;;;;;;;;;5001080;28;20025;-77
2022/11/11 12:01:12;;;;;;;19.60;9.60;;;;;;;;;;5014651;28;20395;-77
2022/11/11 12:03:58;;;;;;;20.50;9.40;;;;;;;;;;5014004;28;20033;-79
2022/11/11 12:06:50;;;;;;;16.15;8.85;;;;;;;;;;5020791;28;20030;-79
2022/11/11 12:09:16;;;;;;;20.88;11.10;;;;;;;;;;4989718;28;20038;-79
2022/11/11 12:11:49;;;;;;;16.75;10.13;;;;;;;;;;4998546;28;20124;-77
2022/11/11 12:14:26;;;;;;;14.68;9.65;;;;;;;;;;4993764;28;20034;-78
2022/11/11 12:17:02;;;;;;;20.08;10.00;;;;;;;;;;5013141;28;20028;-78
2022/11/11 12:19:35;;;;;;;17.55;9.77;;;;;;;;;;4996344;28;20121;-77
2022/11/11 12:22:07;;;;;;;14.35;8.95;;;;;;;;;;4994641;28;20029;-77
2022/11/11 12:24:37;;;;;;;15.43;9.00;;;;;;;;;;4995321;28;20037;-77
2022/11/11 12:27:03;;;;;;;15.55;8.73;;;;;;;;;;5008599;28;20120;-76
2022/11/11 12:29:44;;;;;;;16.05;9.07;;;;;;;;;;5001328;28;20061;-76
2022/11/11 12:32:29;;;;;;;20.88;9.48;;;;;;;;;;5013105;28;20116;-77
2022/11/11 12:34:58;;;;;;;19.67;8.73;;;;;;;;;;5018682;28;20013;-75
2022/11/11 12:37:40;;;;;;;19.48;8.52;;;;;;;;;;5032165;28;20447;-76
2022/11/11 12:40:17;;;;;;;23.70;9.33;;;;;;;;;;5027475;28;20400;-75
2022/11/11 12:43:06;;;;;;;15.15;8.70;;;;;;;;;;5005636;28;20044;-75
2022/11/11 12:45:46;;;;;;;13.73;8.48;;;;;;;;;;5014157;28;20024;-75
2022/11/11 12:48:30;;;;;;;17.95;9.90;;;;;;;;;;5012028;28;20131;-74
2022/11/11 12:51:04;;;;;;;18.83;9.10;;;;;;;;;;5027389;28;20031;-74
2022/11/11 12:53:37;;;;;;;15.00;8.68;;;;;;;;;;5030930;28;20424;-73
2022/11/11 12:56:15;;;;;;;16.73;8.07;;;;;;;;;;5013385;28;20080;-74
2022/11/11 12:58:48;;;;;;;14.80;9.02;;;;;;;;;;5012968;28;20068;-73
2022/11/11 13:01:20;;;;;;;17.15;8.82;;;;;;;;;;5028244;28;20028;-74
2022/11/11 13:03:49;;;;;;;19.67;8.70;;;;;;;;;;5003390;28;20029;-74
2022/11/11 13:06:24;;;;;;;16.88;8.82;;;;;;;;;;5014434;28;20029;-74
2022/11/11 13:08:50;;;;;;;20.08;8.15;;;;;;;;;;5014071;28;20112;-73
2022/11/11 13:11:22;;;;;;;19.17;8.63;;;;;;;;;;5013902;28;20025;-75
2022/11/11 13:14:00;;;;;;;17.60;8.50;;;;;;;;;;5010578;28;20025;-74
2022/11/11 13:16:26;;;;;;;14.68;8.20;;;;;;;;;;5012222;28;20010;-73
2022/11/11 13:19:00;;;;;;;16.13;9.00;;;;;;;;;;5012795;28;20042;-73
2022/11/11 13:21:31;;;;;;;12.57;6.97;;;;;;;;;;5011957;28;20069;-73
2022/11/11 13:23:57;;;;;;;15.70;8.05;;;;;;;;;;5011548;28;20049;-73
2022/11/11 13:26:30;;;;;;;15.38;8.40;;;;;;;;;;5011542;28;20034;-73
2022/11/11 13:28:56;;;;;;;;;;;;;;;;;;5012186;28;20018;-73
2022/11/11 13:31:27;;;;;;;15.30;6.53;;;;;;;;;;5012195;28;19932;-73
2022/11/11 13:33:55;;;;;;;14.63;6.97;;;;;;;;;;5012374;28;20028;-73
2022/11/11 13:36:24;;;;;;;14.23;7.20;;;;;;;;;;5026409;28;20021;-73
2022/11/11 13:38:55;;;;;;;13.07;6.88;;;;;;;;;;5032084;28;20072;-73
2022/11/11 13:41:26;;;;;;;11.23;6.47;;;;;;;;;;5021856;28;20050;-73
2022/11/11 13:43:54;;;;;;;10.35;6.90;;;;;;;;;;5024922;28;20040;-73
2022/11/11 13:46:39;;;;;;;15.40;7.57;;;;;;;;;;5032741;28;20553;-73
2022/11/11 13:49:08;;;;;;;14.13;7.35;;;;;;;;;;5033073;28;20083;-73
2022/11/11 13:51:37;;;;;;;13.23;7.45;;;;;;;;;;5032318;28;20084;-73
2022/11/11 13:54:05;;;;;;;14.95;7.75;;;;;;;;;;5014876;28;20026;-73
2022/11/11 13:56:43;;;;;;;15.25;7.65;;;;;;;;;;5032911;28;20479;-73
2022/11/11 13:59:19;;;;;;;17.73;7.22;;;;;;;;;;5014831;28;20075;-73
2022/11/11 14:01:45;;;;;;;13.90;7.18;;;;;;;;;;5032538;28;20052;-73
2022/11/11 14:04:12;;;;;;;17.70;8.05;;;;;;;;;;5032851;28;20028;-73
2022/11/11 14:06:47;;;;;;;13.45;7.53;;;;;;;;;;5014534;28;20026;-73
2022/11/11 14:09:33;;;;;;;12.85;7.22;;;;;;;;;;5032592;28;20044;-73
2022/11/11 14:12:17;;;;;;;15.60;6.72;;;;;;;;;;5032133;28;20472;-73
2022/11/11 14:14:46;;;;;;;13.18;7.20;;;;;;;;;;5014236;28;20096;-73
2022/11/11 14:17:13;;;;;;;13.93;7.38;;;;;;;;;;5032564;28;20483;-73
2022/11/11 14:19:39;;;;;;;9.50;6.60;;;;;;;;;;5032202;28;20046;-73
2022/11/11 14:22:25;;;;;;;10.95;6.32;;;;;;;;;;5032286;28;20037;-73
2022/11/11 14:24:51;;;;;;;13.27;6.63;;;;;;;;;;5032549;28;20045;-73
2022/11/11 14:27:20;;;;;;;13.73;6.75;;;;;;;;;;5032215;28;20036;-73
2022/11/11 14:29:53;;;;;;;15.80;6.97;;;;;;;;;;5032273;28;20464;-76
2022/11/11 14:32:19;;;;;;;12.00;5.80;;;;;;;;;;5031817;28;20100;-73
2022/11/11 14:34:45;;;;;;;13.77;6.30;;;;;;;;;;5019441;28;20018;-73
2022/11/11 14:37:30;;;;;;;11.40;6.45;;;;;;;;;;5022238;28;20116;-73
2022/11/11 14:39:56;;;;;;;13.90;6.30;;;;;;;;;;5012499;28;20471;-73
2022/11/11 14:42:34;;;;;;;13.90;6.07;;;;;;;;;;5018990;28;20032;-73
2022/11/11 14:45:01;;;;;;;12.13;6.45;;;;;;;;;;5023129;28;20022;-73
2022/11/11 14:47:30;;;;;;;12.18;6.40;;;;;;;;;;5012417;28;20029;-73
2022/11/11 14:49:58;;;;;;;14.32;6.45;;;;;;;;;;5028208;28;20029;-73
2022/11/11 14:52:44;;;;;;;11.10;6.03;;;;;;;;;;5013878;28;20036;-73
2022/11/11 14:55:22;;;;;;;13.60;6.63;;;;;;;;;;5032246;28;20495;-76
2022/11/11 14:57:56;;;;;;;10.50;5.78;;;;;;;;;;5004829;28;20364;-75
2022/11/11 15:00:24;;;;;;;10.57;5.90;;;;;;;;;;5024799;28;20470;-75
2022/11/11 15:02:52;;;;;;;13.73;6.22;;;;;;;;;;5023359;28;20464;-75
2022/11/11 15:05:30;;;;;;;13.70;6.30;;;;;;;;;;5023070;28;20461;-75
2022/11/11 15:08:15;;;;;;;12.02;6.40;;;;;;;;;;5019035;28;20022;-75
2022/11/11 15:10:44;;;;;;;11.25;5.65;;;;;;;;;;5004553;28;20041;-75
2022/11/11 15:13:46;;;;;;;14.30;6.95;;;;;;;;;;5019140;28;20105;-75
2022/11/11 15:16:12;;;;;;;15.75;6.30;;;;;;;;;;5021591;28;20017;-75
2022/11/11 15:18:38;;;;;;;11.93;6.55;;;;;;;;;;5019545;28;20375;-75
2022/11/11 15:21:25;;;;;;;11.20;5.82;;;;;;;;;;5026230;28;20086;-75
2022/11/11 15:24:04;;;;;;;15.05;6.90;;;;;;;;;;5031404;28;20112;-75
2022/11/11 15:27:06;;;;;;;16.55;7.53;;;;;;;;;;5013452;28;20333;-73
2022/11/11 15:29:47;;;;;;;18.10;7.88;;;;;;;;;;4949227;28;20473;-73
2022/11/11 15:32:34;;;;;;;15.00;7.40;;;;;;;;;;5020988;28;20041;-74
2022/11/11 15:35:19;;;;;;;14.48;8.27;;;;;;;;;;5031378;28;20036;-75
2022/11/11 15:37:50;;;;;;;16.77;7.25;;;;;;;;;;5031118;28;20085;-75
2022/11/11 15:40:19;;;;;;;15.97;7.47;;;;;;;;;;5031463;28;20025;-74
2022/11/11 15:42:46;;;;;;;17.63;7.65;;;;;;;;;;5023614;28;20022;-75
2022/11/11 15:45:19;;;;;;;17.00;7.82;;;;;;;;;;5007636;28;20490;-74
2022/11/11 15:47:45;;;;;;;12.40;7.45;;;;;;;;;;5007742;28;20040;-75
2022/11/11 15:50:17;;;;;;;17.08;7.38;;;;;;;;;;5022097;28;20022;-74
2022/11/11 15:52:43;;;;;;;13.32;7.60;;;;;;;;;;5019352;28;20022;-75
2022/11/11 15:55:19;;;;;;;14.50;7.13;;;;;;;;;;5019439;28;20473;-75
2022/11/11 15:57:45;;;;;;;12.55;6.35;;;;;;;;;;5025142;28;20020;-75